createdAt,value
2023-05-09T00:00:15.687Z,0.00
2023-05-09T00:01:15.685Z,0.00
2023-05-09T00:02:15.715Z,0.00
2023-05-09T00:03:15.701Z,0.00
2023-05-09T00:04:15.684Z,0.00
2023-05-09T00:05:15.925Z,0.00
2023-05-09T00:06:15.677Z,0.00
2023-05-09T00:07:15.671Z,0.00
2023-05-09T00:08:15.709Z,0.00
2023-05-09T00:09:15.612Z,0.00
2023-05-09T00:10:15.622Z,0.00
2023-05-09T00:11:15.609Z,0.00
2023-05-09T00:12:15.588Z,0.00
2023-05-09T00:13:15.609Z,0.00
2023-05-09T00:14:15.573Z,0.00
2023-05-09T00:15:15.736Z,0.00
2023-05-09T00:16:15.567Z,0.00
2023-05-09T00:17:15.550Z,0.00
2023-05-09T00:18:15.541Z,0.00
2023-05-09T00:19:15.531Z,0.00
2023-05-09T00:20:15.538Z,0.00
2023-05-09T00:21:15.528Z,0.00
2023-05-09T00:22:15.506Z,0.00
2023-05-09T00:23:15.494Z,0.00
2023-05-09T00:24:15.572Z,0.00
2023-05-09T00:25:15.621Z,0.00
2023-05-09T00:26:15.459Z,0.00
2023-05-09T00:27:15.471Z,0.00
2023-05-09T00:28:15.455Z,0.00
2023-05-09T00:29:15.445Z,0.00
2023-05-09T00:30:15.445Z,0.00
2023-05-09T00:31:15.431Z,0.00
2023-05-09T00:32:15.506Z,0.00
2023-05-09T00:33:15.422Z,0.00
2023-05-09T00:34:15.406Z,0.00
2023-05-09T00:35:15.569Z,0.00
2023-05-09T00:36:15.387Z,0.00
2023-05-09T00:37:15.385Z,0.00
2023-05-09T00:38:15.367Z,0.00
2023-05-09T00:39:15.359Z,0.00
2023-05-09T00:40:15.442Z,0.00
2023-05-09T00:41:15.352Z,0.00
2023-05-09T00:42:15.343Z,0.00
2023-05-09T00:43:15.324Z,0.00
2023-05-09T00:44:15.316Z,0.00
2023-05-09T00:45:15.440Z,0.00
2023-05-09T00:46:15.323Z,0.00
2023-05-09T00:47:15.301Z,0.00
2023-05-09T00:48:15.288Z,0.00
2023-05-09T00:49:15.276Z,0.00
2023-05-09T00:50:15.291Z,0.00
2023-05-09T00:51:15.279Z,0.00
2023-05-09T00:52:15.261Z,0.00
2023-05-09T00:53:15.243Z,0.00
2023-05-09T00:54:15.229Z,0.00
2023-05-09T00:55:15.403Z,0.00
2023-05-09T00:56:15.301Z,0.00
2023-05-09T00:57:15.204Z,0.00
2023-05-09T00:58:15.203Z,0.00
2023-05-09T00:59:16.960Z,0.00
2023-05-09T01:00:15.187Z,0.00
2023-05-09T01:01:15.224Z,0.00
2023-05-09T01:02:15.190Z,0.00
2023-05-09T01:03:15.219Z,0.00
2023-05-09T01:04:15.157Z,0.00
2023-05-09T01:05:15.515Z,0.00
2023-05-09T01:06:15.127Z,0.00
2023-05-09T01:07:15.125Z,0.00
2023-05-09T01:08:15.112Z,0.00
2023-05-09T01:09:15.104Z,0.00
2023-05-09T01:10:15.093Z,0.00
2023-05-09T01:11:15.142Z,0.00
2023-05-09T01:12:15.162Z,0.00
2023-05-09T01:13:15.091Z,0.00
2023-05-09T01:14:15.058Z,0.00
2023-05-09T01:15:15.262Z,0.00
2023-05-09T01:16:15.085Z,0.00
2023-05-09T01:17:15.032Z,0.00
2023-05-09T01:18:15.099Z,0.00
2023-05-09T01:19:15.025Z,0.00
2023-05-09T01:20:15.015Z,0.00
2023-05-09T01:21:15.005Z,0.00
2023-05-09T01:22:14.991Z,0.00
2023-05-09T01:23:14.989Z,0.00
2023-05-09T01:24:14.971Z,0.00
2023-05-09T01:25:15.114Z,0.00
2023-05-09T01:26:14.960Z,0.00
2023-05-09T01:27:14.949Z,0.00
2023-05-09T01:28:15.027Z,0.00
2023-05-09T01:29:14.936Z,0.00
2023-05-09T01:30:14.932Z,0.00
2023-05-09T01:31:14.926Z,0.00
2023-05-09T01:32:14.905Z,0.00
2023-05-09T01:33:14.897Z,0.00
2023-05-09T01:34:14.905Z,0.00
2023-05-09T01:35:15.057Z,0.00
2023-05-09T01:36:14.875Z,0.00
2023-05-09T01:37:14.860Z,0.00
2023-05-09T01:38:14.850Z,0.00
2023-05-09T01:39:14.857Z,0.00
2023-05-09T01:40:14.834Z,0.00
2023-05-09T01:41:14.825Z,0.00
2023-05-09T01:42:14.817Z,0.00
2023-05-09T01:43:14.810Z,0.00
2023-05-09T01:44:14.941Z,0.00
2023-05-09T01:45:15.079Z,0.00
2023-05-09T01:46:14.824Z,0.00
2023-05-09T01:47:14.773Z,0.00
2023-05-09T01:48:14.762Z,0.00
2023-05-09T01:49:14.764Z,0.00
2023-05-09T01:50:14.745Z,0.00
2023-05-09T01:51:14.776Z,0.00
2023-05-09T01:52:14.731Z,0.00
2023-05-09T01:53:14.717Z,0.00
2023-05-09T01:54:14.711Z,0.00
2023-05-09T01:55:14.956Z,0.00
2023-05-09T01:56:14.692Z,0.00
2023-05-09T01:57:14.684Z,0.00
2023-05-09T01:58:14.675Z,0.00
2023-05-09T01:59:14.666Z,0.00
2023-05-09T02:00:14.750Z,0.00
2023-05-09T02:01:14.688Z,0.00
2023-05-09T02:02:14.715Z,0.00
2023-05-09T02:03:14.672Z,0.00
2023-05-09T02:04:14.622Z,0.00
2023-05-09T02:05:14.802Z,0.00
2023-05-09T02:06:14.604Z,0.00
2023-05-09T02:07:14.596Z,0.00
2023-05-09T02:08:14.589Z,0.00
2023-05-09T02:09:14.578Z,0.00
2023-05-09T02:10:14.580Z,0.00
2023-05-09T02:11:14.588Z,0.00
2023-05-09T02:12:14.577Z,0.00
2023-05-09T02:13:14.617Z,0.00
2023-05-09T02:14:14.536Z,0.00
2023-05-09T02:15:14.748Z,0.00
2023-05-09T02:16:14.641Z,0.00
2023-05-09T02:17:14.516Z,0.00
2023-05-09T02:18:14.502Z,0.00
2023-05-09T02:19:14.487Z,0.00
2023-05-09T02:20:14.479Z,0.00
2023-05-09T02:21:14.576Z,0.00
2023-05-09T02:22:14.462Z,0.00
2023-05-09T02:23:14.453Z,0.00
2023-05-09T02:24:14.445Z,0.00
2023-05-09T02:25:14.631Z,0.00
2023-05-09T02:26:14.476Z,0.00
2023-05-09T02:27:14.429Z,0.00
2023-05-09T02:28:14.405Z,0.00
2023-05-09T02:29:14.400Z,0.00
2023-05-09T02:30:14.391Z,0.00
2023-05-09T02:31:14.414Z,0.00
2023-05-09T02:32:14.470Z,0.00
2023-05-09T02:33:14.377Z,0.00
2023-05-09T02:34:14.353Z,0.00
2023-05-09T02:35:14.515Z,0.00
2023-05-09T02:36:14.340Z,0.00
2023-05-09T02:37:14.330Z,0.00
2023-05-09T02:38:14.338Z,0.00
2023-05-09T02:39:14.311Z,0.00
2023-05-09T02:40:14.303Z,0.00
2023-05-09T02:41:14.297Z,0.00
2023-05-09T02:42:14.290Z,0.00
2023-05-09T02:43:14.271Z,0.00
2023-05-09T02:44:14.266Z,0.00
2023-05-09T02:45:14.449Z,0.00
2023-05-09T02:46:14.262Z,0.00
2023-05-09T02:47:14.236Z,0.00
2023-05-09T02:48:14.331Z,0.00
2023-05-09T02:49:26.766Z,0.00
2023-05-09T02:50:14.218Z,0.00
2023-05-09T02:51:14.217Z,0.00
2023-05-09T02:52:14.195Z,0.00
2023-05-09T02:53:14.185Z,0.00
2023-05-09T02:54:14.176Z,0.00
2023-05-09T02:55:14.388Z,0.00
2023-05-09T02:56:14.155Z,0.00
2023-05-09T02:57:14.152Z,0.00
2023-05-09T02:58:15.146Z,0.00
2023-05-09T02:59:14.269Z,0.00
2023-05-09T03:00:14.124Z,0.00
2023-05-09T03:01:14.152Z,0.00
2023-05-09T03:02:14.104Z,0.00
2023-05-09T03:03:14.194Z,0.00
2023-05-09T03:04:14.184Z,0.00
2023-05-09T03:05:14.232Z,0.00
2023-05-09T03:06:14.067Z,0.00
2023-05-09T03:07:14.057Z,0.00
2023-05-09T03:08:14.048Z,0.00
2023-05-09T03:09:14.040Z,0.00
2023-05-09T03:10:14.054Z,0.00
2023-05-09T03:11:14.025Z,0.00
2023-05-09T03:12:14.022Z,0.00
2023-05-09T03:13:14.010Z,0.00
2023-05-09T03:14:13.995Z,0.00
2023-05-09T03:15:14.277Z,5.63
2023-05-09T03:16:13.995Z,5.63
2023-05-09T03:17:13.971Z,5.63
2023-05-09T03:18:13.952Z,5.63
2023-05-09T03:19:13.949Z,5.63
2023-05-09T03:20:14.027Z,5.63
2023-05-09T03:21:13.934Z,5.63
2023-05-09T03:22:13.922Z,5.63
2023-05-09T03:23:13.916Z,5.63
2023-05-09T03:24:13.916Z,11.25
2023-05-09T03:25:14.095Z,11.25
2023-05-09T03:26:13.889Z,11.25
2023-05-09T03:27:13.877Z,11.25
2023-05-09T03:28:13.868Z,11.25
2023-05-09T03:29:13.862Z,11.25
2023-05-09T03:30:13.938Z,11.25
2023-05-09T03:31:13.878Z,16.88
2023-05-09T03:32:15.120Z,16.88
2023-05-09T03:33:13.826Z,16.88
2023-05-09T03:34:13.819Z,16.88
2023-05-09T03:35:13.939Z,22.50
2023-05-09T03:36:13.882Z,22.50
2023-05-09T03:37:13.789Z,28.13
2023-05-09T03:38:13.780Z,33.75
2023-05-09T03:39:13.769Z,33.75
2023-05-09T03:40:13.763Z,33.75
2023-05-09T03:41:13.752Z,33.75
2023-05-09T03:42:13.739Z,33.75
2023-05-09T03:43:13.739Z,33.75
2023-05-09T03:44:13.728Z,33.75
2023-05-09T03:45:13.963Z,33.75
2023-05-09T03:46:13.745Z,33.75
2023-05-09T03:47:13.699Z,33.75
2023-05-09T03:48:13.732Z,33.75
2023-05-09T03:49:13.685Z,39.38
2023-05-09T03:50:13.674Z,39.38
2023-05-09T03:51:13.706Z,39.38
2023-05-09T03:52:13.735Z,39.38
2023-05-09T03:53:13.644Z,39.38
2023-05-09T03:54:13.637Z,45.00
2023-05-09T03:55:13.799Z,45.00
2023-05-09T03:56:13.614Z,45.00
2023-05-09T03:57:13.606Z,45.00
2023-05-09T03:58:13.600Z,50.63
2023-05-09T03:59:13.590Z,56.25
2023-05-09T04:00:13.577Z,67.50
2023-05-09T04:01:13.572Z,78.75
2023-05-09T04:02:13.622Z,84.38
2023-05-09T04:03:13.607Z,84.38
2023-05-09T04:04:13.737Z,90.00
2023-05-09T04:05:13.776Z,95.63
2023-05-09T04:06:13.538Z,95.63
2023-05-09T04:07:13.528Z,101.25
2023-05-09T04:08:13.594Z,106.88
2023-05-09T04:09:13.504Z,112.50
2023-05-09T04:10:13.504Z,118.13
2023-05-09T04:11:13.488Z,118.13
2023-05-09T04:12:13.476Z,123.75
2023-05-09T04:13:13.547Z,129.38
2023-05-09T04:14:13.456Z,129.38
2023-05-09T04:15:13.904Z,135.00
2023-05-09T04:16:13.541Z,135.00
2023-05-09T04:17:13.431Z,140.63
2023-05-09T04:18:13.422Z,146.25
2023-05-09T04:19:13.416Z,151.88
2023-05-09T04:20:13.420Z,157.50
2023-05-09T04:21:13.403Z,163.13
2023-05-09T04:22:13.386Z,168.75
2023-05-09T04:23:13.384Z,180.00
2023-05-09T04:24:13.369Z,191.25
2023-05-09T04:25:13.565Z,202.50
2023-05-09T04:26:13.353Z,213.75
2023-05-09T04:27:13.337Z,225.00
2023-05-09T04:28:13.367Z,236.25
2023-05-09T04:29:13.330Z,247.50
2023-05-09T04:30:13.317Z,253.13
2023-05-09T04:31:13.369Z,258.75
2023-05-09T04:32:13.354Z,264.38
2023-05-09T04:33:13.298Z,264.38
2023-05-09T04:34:13.281Z,270.00
2023-05-09T04:35:13.616Z,275.63
2023-05-09T04:36:13.274Z,275.63
2023-05-09T04:37:13.267Z,275.63
2023-05-09T04:38:13.247Z,281.25
2023-05-09T04:39:13.253Z,281.25
2023-05-09T04:40:13.313Z,286.88
2023-05-09T04:41:13.227Z,286.88
2023-05-09T04:42:13.231Z,286.88
2023-05-09T04:43:13.209Z,292.50
2023-05-09T04:44:13.199Z,292.50
2023-05-09T04:45:13.303Z,298.13
2023-05-09T04:46:13.190Z,298.13
2023-05-09T04:47:13.176Z,303.75
2023-05-09T04:48:13.175Z,303.75
2023-05-09T04:49:13.165Z,303.75
2023-05-09T04:50:13.157Z,303.75
2023-05-09T04:51:13.149Z,309.38
2023-05-09T04:52:13.142Z,309.38
2023-05-09T04:53:13.131Z,309.38
2023-05-09T04:54:13.132Z,315.00
2023-05-09T04:55:13.266Z,315.00
2023-05-09T04:56:13.193Z,315.00
2023-05-09T04:57:17.916Z,320.63
2023-05-09T04:58:13.204Z,320.63
2023-05-09T04:59:13.093Z,320.63
2023-05-09T05:00:13.111Z,320.63
2023-05-09T05:01:13.126Z,326.25
2023-05-09T05:02:13.132Z,326.25
2023-05-09T05:03:13.084Z,326.25
2023-05-09T05:04:13.093Z,326.25
2023-05-09T05:05:13.075Z,326.25
2023-05-09T05:06:13.056Z,331.88
2023-05-09T05:07:13.046Z,331.88
2023-05-09T05:08:13.040Z,331.88
2023-05-09T05:09:13.028Z,331.88
2023-05-09T05:10:13.021Z,337.50
2023-05-09T05:11:13.012Z,337.50
2023-05-09T05:12:13.266Z,337.50
2023-05-09T05:13:13.051Z,337.50
2023-05-09T05:14:12.993Z,343.13
2023-05-09T05:15:13.131Z,343.13
2023-05-09T05:16:13.016Z,343.13
2023-05-09T05:17:12.979Z,348.75
2023-05-09T05:18:12.980Z,348.75
2023-05-09T05:19:12.971Z,348.75
2023-05-09T05:20:12.985Z,348.75
2023-05-09T05:21:12.956Z,354.38
2023-05-09T05:22:12.949Z,354.38
2023-05-09T05:23:12.947Z,354.38
2023-05-09T05:24:12.938Z,360.00
2023-05-09T05:25:13.144Z,354.38
2023-05-09T05:26:12.930Z,354.38
2023-05-09T05:27:12.951Z,354.38
2023-05-09T05:28:13.004Z,354.38
2023-05-09T05:29:12.919Z,360.00
2023-05-09T05:30:12.909Z,360.00
2023-05-09T05:31:12.919Z,360.00
2023-05-09T05:32:12.899Z,365.63
2023-05-09T05:33:12.896Z,365.63
2023-05-09T05:34:12.888Z,365.63
2023-05-09T05:35:13.095Z,371.25
2023-05-09T05:36:12.879Z,371.25
2023-05-09T05:37:12.885Z,376.88
2023-05-09T05:38:12.870Z,376.88
2023-05-09T05:39:12.862Z,382.50
2023-05-09T05:40:12.883Z,393.75
2023-05-09T05:41:12.862Z,405.00
2023-05-09T05:42:12.854Z,427.50
2023-05-09T05:43:12.850Z,461.25
2023-05-09T05:44:12.935Z,534.38
2023-05-09T05:45:12.965Z,725.63
2023-05-09T05:46:12.922Z,928.13
2023-05-09T05:47:12.837Z,1063.13
2023-05-09T05:48:12.838Z,1136.25
2023-05-09T05:49:12.820Z,1226.25
2023-05-09T05:50:12.833Z,1282.50
2023-05-09T05:51:12.813Z,1338.75
2023-05-09T05:52:12.807Z,1361.25
2023-05-09T05:53:12.818Z,1355.63
2023-05-09T05:54:12.812Z,1389.38
2023-05-09T05:55:13.027Z,1456.88
2023-05-09T05:56:12.798Z,1535.63
2023-05-09T05:57:12.792Z,1625.63
2023-05-09T05:58:12.791Z,1625.63
2023-05-09T05:59:13.594Z,1597.50
2023-05-09T06:00:12.880Z,1563.75
2023-05-09T06:01:12.777Z,1530.00
2023-05-09T06:02:12.830Z,1535.63
2023-05-09T06:03:12.839Z,1552.50
2023-05-09T06:04:12.814Z,1541.25
2023-05-09T06:05:12.932Z,1541.25
2023-05-09T06:06:12.768Z,1591.88
2023-05-09T06:07:12.765Z,1614.38
2023-05-09T06:08:12.757Z,1586.25
2023-05-09T06:09:12.753Z,1563.75
2023-05-09T06:10:12.777Z,1575.00
2023-05-09T06:11:12.761Z,1681.88
2023-05-09T06:12:12.756Z,1861.88
2023-05-09T06:13:12.761Z,1946.25
2023-05-09T06:14:12.751Z,1873.13
2023-05-09T06:15:13.109Z,1766.25
2023-05-09T06:16:19.235Z,1726.88
2023-05-09T06:17:12.803Z,1704.38
2023-05-09T06:18:12.774Z,1704.38
2023-05-09T06:19:12.728Z,1788.75
2023-05-09T06:20:12.725Z,1963.13
2023-05-09T06:21:12.737Z,2092.50
2023-05-09T06:22:12.723Z,2064.38
2023-05-09T06:23:12.723Z,1985.63
2023-05-09T06:24:23.427Z,1996.88
2023-05-09T06:25:12.970Z,1974.38
2023-05-09T06:26:12.715Z,1878.75
2023-05-09T06:27:12.711Z,1783.13
2023-05-09T06:28:12.718Z,1732.50
2023-05-09T06:29:12.707Z,1738.13
2023-05-09T06:30:24.509Z,1777.50
2023-05-09T06:31:12.719Z,1850.63
2023-05-09T06:32:12.789Z,1951.88
2023-05-09T06:33:12.703Z,2041.88
2023-05-09T06:34:12.709Z,2064.38
2023-05-09T06:35:12.843Z,2070.00
2023-05-09T06:36:12.701Z,2126.25
2023-05-09T06:37:12.700Z,2205.00
2023-05-09T06:38:12.698Z,2244.38
2023-05-09T06:39:12.693Z,2221.88
2023-05-09T06:40:12.697Z,2148.75
2023-05-09T06:41:12.694Z,2103.75
2023-05-09T06:42:12.692Z,2176.88
2023-05-09T06:43:12.689Z,2283.75
2023-05-09T06:44:12.699Z,2323.13
2023-05-09T06:45:12.877Z,2323.13
2023-05-09T06:46:12.739Z,2401.88
2023-05-09T06:47:12.685Z,2458.13
2023-05-09T06:48:12.767Z,2441.25
2023-05-09T06:49:12.692Z,2424.38
2023-05-09T06:50:12.684Z,2508.75
2023-05-09T06:51:12.682Z,2638.13
2023-05-09T06:52:12.678Z,2626.88
2023-05-09T06:53:12.679Z,2520.00
2023-05-09T06:54:12.682Z,2424.38
2023-05-09T06:55:12.747Z,2401.88
2023-05-09T06:56:12.682Z,2368.13
2023-05-09T06:57:12.678Z,2311.88
2023-05-09T06:58:12.681Z,2250.00
2023-05-09T06:59:12.671Z,2233.13
2023-05-09T07:00:12.686Z,2250.00
2023-05-09T07:01:12.697Z,2306.25
2023-05-09T07:02:12.675Z,2362.50
2023-05-09T07:03:12.686Z,2418.75
2023-05-09T07:04:12.779Z,2413.13
2023-05-09T07:05:12.810Z,2351.25
2023-05-09T07:06:12.665Z,2368.13
2023-05-09T07:07:12.749Z,2452.50
2023-05-09T07:08:12.669Z,2542.50
2023-05-09T07:09:12.668Z,2604.38
2023-05-09T07:10:12.666Z,2604.38
2023-05-09T07:11:12.742Z,2593.13
2023-05-09T07:12:12.672Z,2576.25
2023-05-09T07:13:12.694Z,2548.13
2023-05-09T07:14:12.678Z,2559.38
2023-05-09T07:15:12.784Z,2632.50
2023-05-09T07:16:12.701Z,2756.25
2023-05-09T07:17:22.828Z,2835.00
2023-05-09T07:18:12.770Z,2846.25
2023-05-09T07:19:12.667Z,2801.25
2023-05-09T07:20:12.751Z,2801.25
2023-05-09T07:21:12.674Z,2846.25
2023-05-09T07:22:12.753Z,2857.50
2023-05-09T07:23:12.668Z,2795.63
2023-05-09T07:24:12.665Z,2722.50
2023-05-09T07:25:12.766Z,2739.38
2023-05-09T07:26:12.666Z,2835.00
2023-05-09T07:27:12.685Z,2885.63
2023-05-09T07:28:12.691Z,2818.13
2023-05-09T07:29:12.668Z,2688.75
2023-05-09T07:30:12.857Z,2587.50
2023-05-09T07:31:12.716Z,2542.50
2023-05-09T07:32:12.752Z,2520.00
2023-05-09T07:33:12.744Z,2525.63
2023-05-09T07:34:12.666Z,2587.50
2023-05-09T07:35:12.935Z,2750.63
2023-05-09T07:36:13.044Z,2953.13
2023-05-09T07:37:13.749Z,3043.13
2023-05-09T07:38:12.669Z,3060.00
2023-05-09T07:39:12.666Z,3043.13
2023-05-09T07:40:12.794Z,3031.88
2023-05-09T07:41:12.667Z,2998.13
2023-05-09T07:42:12.674Z,2874.38
2023-05-09T07:43:12.680Z,2688.75
2023-05-09T07:44:12.679Z,2536.88
2023-05-09T07:45:12.796Z,2486.25
2023-05-09T07:46:12.706Z,2553.75
2023-05-09T07:47:12.669Z,2728.13
2023-05-09T07:48:12.696Z,2913.75
2023-05-09T07:49:12.678Z,3138.75
2023-05-09T07:50:12.675Z,3268.13
2023-05-09T07:51:12.674Z,3245.63
2023-05-09T07:52:12.753Z,3189.38
2023-05-09T07:53:12.675Z,3150.00
2023-05-09T07:54:12.681Z,3138.75
2023-05-09T07:55:12.721Z,3155.63
2023-05-09T07:56:12.677Z,3155.63
2023-05-09T07:57:12.691Z,3161.25
2023-05-09T07:58:12.681Z,3183.75
2023-05-09T07:59:12.703Z,3245.63
2023-05-09T08:00:12.681Z,3307.50
2023-05-09T08:01:12.689Z,3296.25
2023-05-09T08:02:12.708Z,3330.00
2023-05-09T08:03:12.772Z,3380.63
2023-05-09T08:04:12.998Z,3436.88
2023-05-09T08:05:12.819Z,3420.00
2023-05-09T08:06:12.702Z,3352.50
2023-05-09T08:07:12.700Z,3324.38
2023-05-09T08:08:12.780Z,3408.75
2023-05-09T08:09:12.735Z,3510.00
2023-05-09T08:10:12.708Z,3526.88
2023-05-09T08:11:12.700Z,3504.38
2023-05-09T08:12:12.706Z,3105.00
2023-05-09T08:13:12.750Z,1271.25
2023-05-09T08:14:13.193Z,275.63
2023-05-09T08:15:12.905Z,253.13
2023-05-09T08:16:12.759Z,236.25
2023-05-09T08:17:12.718Z,225.00
2023-05-09T08:18:12.717Z,213.75
2023-05-09T08:19:12.760Z,213.75
2023-05-09T08:20:12.717Z,208.13
2023-05-09T08:21:12.718Z,208.13
2023-05-09T08:22:12.725Z,208.13
2023-05-09T08:23:12.719Z,208.13
2023-05-09T08:24:12.815Z,202.50
2023-05-09T08:25:12.886Z,202.50
2023-05-09T08:26:12.717Z,196.88
2023-05-09T08:27:12.723Z,196.88
2023-05-09T08:28:12.720Z,196.88
2023-05-09T08:29:12.730Z,196.88
2023-05-09T08:30:12.721Z,196.88
2023-05-09T08:31:12.775Z,196.88
2023-05-09T08:32:12.714Z,196.88
2023-05-09T08:33:12.779Z,196.88
2023-05-09T08:34:12.719Z,196.88
2023-05-09T08:35:12.930Z,196.88
2023-05-09T08:36:12.717Z,191.25
2023-05-09T08:37:15.072Z,191.25
2023-05-09T08:38:12.707Z,191.25
2023-05-09T08:39:12.702Z,185.63
2023-05-09T08:40:12.994Z,185.63
2023-05-09T08:41:12.700Z,196.88
2023-05-09T08:42:12.702Z,286.88
2023-05-09T08:43:12.700Z,551.25
2023-05-09T08:44:12.701Z,528.75
2023-05-09T08:45:12.687Z,236.25
2023-05-09T08:46:12.725Z,213.75
2023-05-09T08:47:12.682Z,185.63
2023-05-09T08:48:12.758Z,185.63
2023-05-09T08:49:12.731Z,180.00
2023-05-09T08:50:12.743Z,2508.75
2023-05-09T08:51:12.668Z,2913.75
2023-05-09T08:52:12.665Z,3577.50
2023-05-09T08:53:12.665Z,2863.13
2023-05-09T08:54:12.665Z,3330.00
2023-05-09T08:55:12.710Z,3436.88
2023-05-09T08:56:12.787Z,2053.13
2023-05-09T08:57:12.657Z,410.63
2023-05-09T08:58:12.652Z,196.88
2023-05-09T08:59:12.683Z,191.25
2023-05-09T09:00:12.695Z,191.25
2023-05-09T09:01:12.681Z,185.63
2023-05-09T09:02:12.756Z,180.00
2023-05-09T09:03:12.686Z,180.00
2023-05-09T09:04:12.651Z,180.00
2023-05-09T09:05:23.988Z,180.00
2023-05-09T09:06:12.640Z,174.38
2023-05-09T09:07:12.636Z,174.38
2023-05-09T09:08:12.644Z,174.38
2023-05-09T09:09:12.635Z,174.38
2023-05-09T09:10:12.854Z,168.75
2023-05-09T09:11:12.633Z,168.75
2023-05-09T09:12:12.726Z,168.75
2023-05-09T09:13:12.703Z,168.75
2023-05-09T09:14:12.619Z,174.38
2023-05-09T09:15:12.615Z,180.00
2023-05-09T09:16:12.627Z,185.63
2023-05-09T09:17:12.614Z,191.25
2023-05-09T09:18:12.667Z,191.25
2023-05-09T09:19:12.623Z,191.25
2023-05-09T09:20:12.744Z,185.63
2023-05-09T09:21:12.602Z,180.00
2023-05-09T09:22:12.595Z,180.00
2023-05-09T09:23:12.592Z,174.38
2023-05-09T09:24:12.592Z,174.38
2023-05-09T09:25:12.585Z,174.38
2023-05-09T09:26:12.585Z,174.38
2023-05-09T09:27:12.582Z,174.38
2023-05-09T09:28:12.678Z,174.38
2023-05-09T09:29:12.572Z,174.38
2023-05-09T09:30:12.645Z,174.38
2023-05-09T09:31:12.577Z,174.38
2023-05-09T09:32:12.681Z,174.38
2023-05-09T09:33:12.655Z,174.38
2023-05-09T09:34:12.551Z,174.38
2023-05-09T09:35:12.552Z,174.38
2023-05-09T09:36:12.551Z,174.38
2023-05-09T09:37:12.537Z,174.38
2023-05-09T09:38:12.535Z,174.38
2023-05-09T09:39:12.528Z,174.38
2023-05-09T09:40:12.678Z,168.75
2023-05-09T09:41:12.531Z,168.75
2023-05-09T09:42:12.518Z,163.13
2023-05-09T09:43:12.518Z,163.13
2023-05-09T09:44:12.602Z,157.50
2023-05-09T09:45:12.504Z,157.50
2023-05-09T09:46:12.555Z,157.50
2023-05-09T09:47:12.503Z,157.50
2023-05-09T09:48:12.567Z,157.50
2023-05-09T09:49:12.490Z,157.50
2023-05-09T09:50:12.580Z,157.50
2023-05-09T09:51:12.485Z,157.50
2023-05-09T09:52:12.480Z,157.50
2023-05-09T09:53:12.473Z,157.50
2023-05-09T09:54:12.471Z,157.50
2023-05-09T09:55:12.458Z,157.50
2023-05-09T09:56:12.465Z,157.50
2023-05-09T09:57:12.456Z,157.50
2023-05-09T09:58:12.459Z,157.50
2023-05-09T09:59:12.458Z,163.13
2023-05-09T10:00:12.693Z,163.13
2023-05-09T10:01:12.479Z,168.75
2023-05-09T10:02:12.442Z,174.38
2023-05-09T10:03:12.595Z,174.38
2023-05-09T10:04:12.499Z,180.00
2023-05-09T10:05:12.435Z,180.00
2023-05-09T10:06:12.454Z,174.38
2023-05-09T10:07:14.933Z,180.00
2023-05-09T10:08:12.403Z,180.00
2023-05-09T10:09:12.399Z,180.00
2023-05-09T10:10:12.442Z,180.00
2023-05-09T10:11:12.393Z,180.00
2023-05-09T10:12:12.396Z,174.38
2023-05-09T10:13:12.493Z,174.38
2023-05-09T10:14:12.378Z,174.38
2023-05-09T10:15:12.415Z,174.38
2023-05-09T10:16:12.548Z,174.38
2023-05-09T10:17:12.462Z,174.38
2023-05-09T10:18:12.473Z,174.38
2023-05-09T10:19:12.369Z,174.38
2023-05-09T10:20:12.541Z,174.38
2023-05-09T10:21:12.356Z,180.00
2023-05-09T10:22:12.357Z,180.00
2023-05-09T10:23:12.347Z,180.00
2023-05-09T10:24:12.361Z,185.63
2023-05-09T10:25:12.360Z,185.63
2023-05-09T10:26:12.318Z,185.63
2023-05-09T10:27:12.334Z,191.25
2023-05-09T10:28:12.320Z,191.25
2023-05-09T10:29:12.316Z,191.25
2023-05-09T10:30:12.308Z,191.25
2023-05-09T10:31:12.326Z,191.25
2023-05-09T10:32:12.386Z,191.25
2023-05-09T10:33:12.382Z,191.25
2023-05-09T10:34:12.289Z,191.25
2023-05-09T10:35:12.433Z,191.25
2023-05-09T10:36:12.281Z,191.25
2023-05-09T10:37:12.273Z,191.25
2023-05-09T10:38:12.274Z,191.25
2023-05-09T10:39:12.269Z,196.88
2023-05-09T10:40:12.269Z,196.88
2023-05-09T10:41:12.268Z,196.88
2023-05-09T10:42:12.259Z,202.50
2023-05-09T10:43:12.258Z,208.13
2023-05-09T10:44:12.247Z,275.63
2023-05-09T10:45:12.257Z,416.25
2023-05-09T10:46:12.302Z,427.50
2023-05-09T10:47:12.240Z,405.00
2023-05-09T10:48:12.318Z,264.38
2023-05-09T10:49:12.231Z,157.50
2023-05-09T10:50:12.223Z,151.88
2023-05-09T10:51:12.218Z,151.88
2023-05-09T10:52:12.214Z,151.88
2023-05-09T10:53:12.211Z,151.88
2023-05-09T10:54:12.208Z,151.88
2023-05-09T10:55:12.228Z,151.88
2023-05-09T10:56:12.202Z,151.88
2023-05-09T10:57:12.194Z,151.88
2023-05-09T10:58:12.191Z,151.88
2023-05-09T10:59:12.188Z,151.88
2023-05-09T11:00:12.190Z,151.88
2023-05-09T11:01:12.203Z,151.88
2023-05-09T11:02:12.175Z,151.88
2023-05-09T11:03:12.270Z,151.88
2023-05-09T11:04:12.254Z,151.88
2023-05-09T11:05:12.264Z,151.88
2023-05-09T11:06:12.156Z,163.13
2023-05-09T11:07:12.156Z,225.00
2023-05-09T11:08:12.158Z,286.88
2023-05-09T11:09:12.156Z,337.50
2023-05-09T11:10:12.146Z,455.63
2023-05-09T11:11:12.142Z,382.50
2023-05-09T11:12:12.155Z,253.13
2023-05-09T11:13:12.198Z,196.88
2023-05-09T11:14:12.150Z,185.63
2023-05-09T11:15:12.174Z,180.00
2023-05-09T11:16:12.256Z,174.38
2023-05-09T11:17:12.121Z,174.38
2023-05-09T11:18:12.140Z,168.75
2023-05-09T11:19:12.114Z,163.13
2023-05-09T11:20:12.204Z,163.13
2023-05-09T11:21:12.106Z,157.50
2023-05-09T11:22:12.106Z,157.50
2023-05-09T11:23:12.156Z,157.50
2023-05-09T11:24:12.098Z,157.50
2023-05-09T11:25:12.201Z,163.13
2023-05-09T11:26:12.091Z,168.75
2023-05-09T11:27:12.087Z,168.75
2023-05-09T11:28:12.116Z,174.38
2023-05-09T11:29:12.082Z,174.38
2023-05-09T11:30:12.080Z,174.38
2023-05-09T11:31:12.095Z,180.00
2023-05-09T11:32:12.161Z,180.00
2023-05-09T11:33:12.092Z,180.00
2023-05-09T11:34:12.061Z,180.00
2023-05-09T11:35:12.239Z,180.00
2023-05-09T11:36:12.157Z,180.00
2023-05-09T11:37:12.052Z,180.00
2023-05-09T11:38:12.056Z,174.38
2023-05-09T11:39:12.057Z,168.75
2023-05-09T11:40:12.070Z,163.13
2023-05-09T11:41:12.042Z,157.50
2023-05-09T11:42:12.036Z,157.50
2023-05-09T11:43:12.035Z,151.88
2023-05-09T11:44:12.031Z,151.88
2023-05-09T11:45:12.167Z,151.88
2023-05-09T11:46:12.054Z,151.88
2023-05-09T11:47:12.018Z,151.88
2023-05-09T11:48:12.014Z,151.88
2023-05-09T11:49:12.422Z,146.25
2023-05-09T11:50:12.018Z,146.25
2023-05-09T11:51:12.000Z,146.25
2023-05-09T11:52:12.089Z,146.25
2023-05-09T11:53:11.994Z,146.25
2023-05-09T11:54:11.998Z,146.25
2023-05-09T11:55:12.844Z,146.25
2023-05-09T11:56:11.988Z,146.25
2023-05-09T11:57:11.978Z,146.25
2023-05-09T11:58:11.975Z,146.25
2023-05-09T11:59:11.971Z,146.25
2023-05-09T12:00:11.971Z,146.25
2023-05-09T12:01:12.369Z,146.25
2023-05-09T12:02:12.003Z,146.25
2023-05-09T12:03:12.077Z,146.25
2023-05-09T12:04:11.985Z,146.25
2023-05-09T12:05:12.019Z,146.25
2023-05-09T12:06:11.949Z,146.25
2023-05-09T12:07:11.941Z,146.25
2023-05-09T12:08:12.054Z,146.25
2023-05-09T12:09:11.969Z,146.25
2023-05-09T12:10:11.935Z,146.25
2023-05-09T12:11:11.930Z,146.25
2023-05-09T12:12:11.927Z,146.25
2023-05-09T12:13:12.022Z,146.25
2023-05-09T12:14:11.921Z,146.25
2023-05-09T12:15:11.921Z,146.25
2023-05-09T12:16:11.923Z,146.25
2023-05-09T12:17:11.910Z,146.25
2023-05-09T12:18:11.928Z,146.25
2023-05-09T12:19:11.908Z,146.25
2023-05-09T12:20:11.904Z,146.25
2023-05-09T12:21:11.898Z,146.25
2023-05-09T12:22:11.903Z,146.25
2023-05-09T12:23:11.897Z,146.25
2023-05-09T12:24:11.967Z,146.25
2023-05-09T12:25:11.957Z,146.25
2023-05-09T12:26:11.886Z,146.25
2023-05-09T12:27:11.879Z,146.25
2023-05-09T12:28:11.873Z,146.25
2023-05-09T12:29:11.870Z,146.25
2023-05-09T12:30:11.872Z,146.25
2023-05-09T12:31:11.908Z,146.25
2023-05-09T12:32:11.871Z,146.25
2023-05-09T12:33:11.862Z,146.25
2023-05-09T12:34:11.853Z,146.25
2023-05-09T12:35:11.860Z,146.25
2023-05-09T12:36:11.860Z,146.25
2023-05-09T12:37:11.848Z,146.25